Terminal Aerodrome Forecast
Issued by NWS

Home | Current Version | Previous Version | Text Only | Print | Product List | Glossary On
Versions: 1 2 3 4 5 6 7 8 9 10 11 12 13 14 15 16 17 18 19 20 21 22 23 24 25 26 27 28 29 30 31 32 33 34 35
000
FTUS43 KGLD 271121
TAFMCK
TAF
KMCK 271121Z 2712/2812 VRB03KT 5SM -SHSN SCT005 OVC035
      TEMPO 2712/2714 2SM -SN BR BKN004
     FM271600 19010KT P6SM OVC070
     FM272200 30007KT P6SM BKN200
     FM280300 25006KT P6SM SCT250=

USA.gov is the U.S. government's official web portal to all federal, state and local government web resources and services.